Time;durP1;ratioP1;P1;durP2;ratioP2;P2;SDS_P1;SDS_P2;PMS_P1;PMS_P2;Temp;Humidity;BMP_temperature;BMP_pressure;BME280_temperature;BME280_humidity;BME280_pressure;Samples;Min_cycle;Max_cycle;Signal;HPM_P1;HPM_P2
2022/09/18 00:00:44;;;;;;;5.18;4.60;;;;;;;14.15;78.36;96815.84;6101031;29;20058;-69
2022/09/18 00:03:48;;;;;;;5.15;4.22;;;;;;;14.08;78.83;96825.25;6101319;29;20052;-69
2022/09/18 00:06:50;;;;;;;4.68;3.83;;;;;;;14.11;78.61;96814.41;6100914;29;20079;-70
2022/09/18 00:09:51;;;;;;;5.13;4.15;;;;;;;14.10;78.73;96816.22;6102761;29;20052;-69
2022/09/18 00:12:56;;;;;;;5.45;4.03;;;;;;;14.15;78.77;96808.75;6105003;29;20084;-69
2022/09/18 00:15:57;;;;;;;5.32;3.47;;;;;;;14.12;78.88;96808.97;6104959;29;20399;-69
2022/09/18 00:18:59;;;;;;;4.55;3.65;;;;;;;14.12;79.01;96808.13;6105313;29;20062;-68
2022/09/18 00:22:03;;;;;;;4.40;4.00;;;;;;;14.08;79.14;96804.91;6105225;29;20107;-69
2022/09/18 00:25:07;;;;;;;4.57;3.90;;;;;;;14.14;79.04;96793.00;6105423;29;20048;-68
2022/09/18 00:28:08;;;;;;;6.18;4.20;;;;;;;14.13;79.12;96801.91;6104837;29;20067;-69
2022/09/18 00:31:16;;;;;;;5.97;4.20;;;;;;;14.22;78.72;96800.31;6105165;29;20048;-68
2022/09/18 00:34:20;;;;;;;5.13;3.88;;;;;;;14.19;78.78;96806.69;6105058;29;20486;-69
2022/09/18 00:37:23;;;;;;;4.28;3.80;;;;;;;14.27;78.39;96812.22;6105089;29;20155;-68
2022/09/18 00:40:25;;;;;;;4.85;3.88;;;;;;;14.29;78.39;96812.06;6104486;29;20048;-69
2022/09/18 00:43:32;;;;;;;4.68;3.97;;;;;;;14.14;78.91;96808.88;6104866;29;20044;-68
2022/09/18 00:46:36;;;;;;;5.28;3.83;;;;;;;14.17;78.93;96821.84;6104604;29;20555;-68
2022/09/18 00:50:07;;;;;;;4.00;3.65;;;;;;;14.13;78.99;96813.31;6104481;29;20046;-69
2022/09/18 00:53:11;;;;;;;4.30;3.90;;;;;;;14.01;79.55;96813.44;6104482;29;20048;-69
2022/09/18 00:56:14;;;;;;;5.95;3.92;;;;;;;13.98;79.66;96818.97;6104258;29;20050;-69
2022/09/18 00:59:24;;;;;;;4.53;4.10;;;;;;;14.09;79.57;96819.81;6104161;29;20451;-69
2022/09/18 01:02:26;;;;;;;4.93;4.13;;;;;;;14.12;79.66;96824.00;6104300;29;20168;-69
2022/09/18 01:05:33;;;;;;;5.13;4.05;;;;;;;14.12;79.40;96831.94;6103677;29;20052;-69
2022/09/18 01:08:40;;;;;;;4.47;3.42;;;;;;;14.13;79.29;96823.91;6104331;29;20225;-69
2022/09/18 01:11:54;;;;;;;5.35;3.88;;;;;;;14.22;79.04;96832.91;6103921;29;20044;-69
2022/09/18 01:15:19;;;;;;;4.85;3.80;;;;;;;14.15;79.28;96837.00;6103930;29;20089;-69
2022/09/18 01:18:43;;;;;;;4.43;3.60;;;;;;;14.10;79.55;96834.75;6083917;29;20518;-69
2022/09/18 01:22:03;;;;;;;4.60;3.85;;;;;;;14.11;79.66;96830.28;6103786;29;20139;-69
2022/09/18 01:25:13;;;;;;;7.15;3.90;;;;;;;14.11;79.68;96835.56;6103931;29;20067;-69
2022/09/18 01:28:37;;;;;;;4.70;3.83;;;;;;;14.22;79.21;96837.38;6103843;29;20497;-69
2022/09/18 01:31:47;;;;;;;6.10;4.25;;;;;;;14.26;78.68;96836.16;6103389;29;20055;-69
2022/09/18 01:34:55;;;;;;;3.83;3.42;;;;;;;14.27;78.60;96843.97;6103535;29;20044;-69
2022/09/18 01:38:14;;;;;;;6.07;4.35;;;;;;;14.26;78.72;96834.34;6103174;29;20147;-69
2022/09/18 01:41:22;;;;;;;5.38;4.22;;;;;;;14.25;78.65;96837.97;6103240;29;20052;-69
2022/09/18 01:44:29;;;;;;;5.53;4.38;;;;;;;14.30;78.40;96841.09;6103219;29;20191;-69
2022/09/18 01:47:37;;;;;;;7.07;4.03;;;;;;;14.32;78.15;96844.47;6103376;29;20047;-69
2022/09/18 01:50:45;;;;;;;3.95;3.60;;;;;;;14.29;78.03;96849.97;6103445;29;20131;-69
2022/09/18 01:53:57;;;;;;;4.47;3.97;;;;;;;14.35;78.01;96848.63;6103144;29;20577;-69
2022/09/18 01:57:27;;;;;;;4.75;3.63;;;;;;;14.31;78.09;96842.75;6102865;29;20040;-69
2022/09/18 02:00:30;;;;;;;6.53;4.80;;;;;;;14.32;77.76;96849.75;6085900;29;20059;-69
2022/09/18 02:03:39;;;;;;;4.72;3.67;;;;;;;14.46;77.15;96856.56;6103260;29;20071;-69
2022/09/18 02:06:51;;;;;;;5.00;4.10;;;;;;;14.33;77.57;96855.88;6102664;29;20075;-69
2022/09/18 02:09:56;;;;;;;6.38;4.63;;;;;;;14.26;77.79;96854.66;6102951;29;20532;-69
2022/09/18 02:13:00;;;;;;;6.50;3.92;;;;;;;14.25;78.05;96864.44;6102214;29;20063;-69
2022/09/18 02:16:06;;;;;;;4.78;3.72;;;;;;;14.33;77.77;96862.00;6102709;29;20059;-69
2022/09/18 02:19:17;;;;;;;4.97;3.75;;;;;;;14.34;77.56;96868.97;6102747;29;20418;-69
2022/09/18 02:22:23;;;;;;;5.85;4.30;;;;;;;14.37;77.22;96857.31;6102811;29;20525;-69
2022/09/18 02:25:33;;;;;;;8.43;5.00;;;;;;;14.33;77.75;96866.47;6102712;29;20414;-69
2022/09/18 02:28:39;;;;;;;5.25;4.55;;;;;;;14.34;77.94;96868.97;6102594;29;20135;-69
2022/09/18 02:31:43;;;;;;;5.55;4.50;;;;;;;14.33;77.73;96869.94;6101585;29;20403;-69
2022/09/18 02:34:48;;;;;;;6.10;4.82;;;;;;;14.40;77.56;96877.41;6102255;29;20422;-69
2022/09/18 02:38:00;;;;;;;7.32;4.90;;;;;;;14.38;77.64;96874.88;6101837;29;20407;-69
2022/09/18 02:41:25;;;;;;;5.47;4.25;;;;;;;14.34;77.77;96873.44;6102183;29;20126;-69
2022/09/18 02:44:41;;;;;;;6.43;4.28;;;;;;;14.28;78.23;96880.06;6102393;29;20071;-69
2022/09/18 02:48:17;;;;;;;5.82;4.28;;;;;;;14.17;78.83;96876.59;6101926;29;20423;-68
2022/09/18 02:51:36;;;;;;;4.70;3.97;;;;;;;14.22;78.83;96885.00;6083732;29;20463;-68
2022/09/18 02:54:48;;;;;;;6.88;4.05;;;;;;;14.32;78.53;96884.16;6101761;29;20426;-69
2022/09/18 02:58:04;;;;;;;6.72;5.10;;;;;;;14.32;78.49;96891.22;6101974;29;20052;-68
2022/09/18 03:01:11;;;;;;;5.60;4.20;;;;;;;14.26;78.72;96889.91;6102106;29;20458;-68
2022/09/18 03:04:19;;;;;;;6.88;4.55;;;;;;;14.43;78.06;96903.63;6100254;29;20056;-69
2022/09/18 03:07:23;;;;;;;6.28;4.18;;;;;;;14.48;77.96;96912.03;6102286;29;20060;-69
2022/09/18 03:10:25;;;;;;;5.88;4.05;;;;;;;14.53;77.70;96904.59;6101826;29;20496;-68
2022/09/18 03:13:26;;;;;;;6.68;4.00;;;;;;;14.72;76.88;96910.09;6101549;29;20051;-69
2022/09/18 03:16:33;;;;;;;6.00;4.22;;;;;;;14.73;77.11;96911.78;6101724;29;20044;-69
2022/09/18 03:19:43;;;;;;;5.75;3.92;;;;;;;14.72;76.88;96906.59;6101569;29;20052;-69
2022/09/18 03:22:44;;;;;;;5.25;3.90;;;;;;;14.79;76.46;96915.75;6101327;29;20609;-68
2022/09/18 03:25:49;;;;;;;6.15;4.32;;;;;;;14.52;77.48;96913.50;6101583;29;20050;-68
2022/09/18 03:28:51;;;;;;;6.97;4.85;;;;;;;14.41;78.19;96917.00;6101353;29;20046;-69
2022/09/18 03:31:55;;;;;;;6.72;5.00;;;;;;;14.30;79.17;96920.47;6100272;29;20075;-68
2022/09/18 03:34:59;;;;;;;6.53;5.25;;;;;;;14.41;78.69;96926.72;6101489;29;20043;-69
2022/09/18 03:38:08;;;;;;;5.65;3.95;;;;;;;14.58;78.11;96920.97;6101389;29;20083;-69
2022/09/18 03:41:14;;;;;;;5.88;4.38;;;;;;;14.58;78.04;96918.31;6101484;29;20112;-68
2022/09/18 03:44:18;;;;;;;6.05;4.00;;;;;;;14.74;77.37;96918.75;6100945;29;20063;-68
2022/09/18 03:47:19;;;;;;;4.65;3.80;;;;;;;14.94;76.79;96913.63;6105889;29;20062;-70
2022/09/18 03:50:20;;;;;;;4.85;3.92;;;;;;;15.12;76.00;96917.44;6105746;29;20076;-69
2022/09/18 03:53:22;;;;;;;5.70;4.13;;;;;;;15.24;75.29;96907.63;6105660;29;20547;-68
2022/09/18 03:56:24;;;;;;;5.30;3.65;;;;;;;15.48;74.33;96912.69;6105756;29;20048;-69
2022/09/18 03:59:25;;;;;;;6.78;4.53;;;;;;;15.71;73.64;96914.28;6105901;29;20052;-69
2022/09/18 04:02:29;;;;;;;4.85;4.18;;;;;;;15.98;73.37;96935.94;6105532;29;20043;-69
2022/09/18 04:05:31;;;;;;;6.97;4.15;;;;;;;16.21;72.79;96933.94;6105477;29;20051;-69
2022/09/18 04:08:37;;;;;;;5.50;3.03;;;;;;;16.46;71.78;96925.53;6105397;29;20044;-69
2022/09/18 04:11:38;;;;;;;5.13;4.30;;;;;;;16.63;71.23;96931.16;6105422;29;20561;-69
2022/09/18 04:14:42;;;;;;;;;;;;;;;16.95;70.62;96942.44;6105578;29;20056;-69
2022/09/18 04:17:45;;;;;;;4.35;3.05;;;;;;;17.10;70.23;96947.34;6105365;29;20309;-69
2022/09/18 04:20:47;;;;;;;4.90;3.83;;;;;;;17.49;68.70;96940.22;6105334;29;20052;-69
2022/09/18 04:23:51;;;;;;;6.47;3.15;;;;;;;17.59;67.92;96950.88;6105112;29;20052;-69
2022/09/18 04:26:56;;;;;;;6.03;3.53;;;;;;;17.62;66.82;96958.59;6105153;29;20052;-69
2022/09/18 04:29:57;;;;;;;5.05;3.63;;;;;;;17.54;66.76;96961.94;6104534;29;20055;-68
2022/09/18 04:33:01;;;;;;;5.22;3.53;;;;;;;17.27;67.14;96957.34;6103648;29;20056;-69
2022/09/18 04:36:03;;;;;;;6.43;4.47;;;;;;;17.22;67.52;96971.03;6104750;29;20151;-68
2022/09/18 04:39:11;;;;;;;6.85;4.40;;;;;;;16.98;68.49;96968.75;6104771;29;20147;-69
2022/09/18 04:42:16;;;;;;;4.93;4.20;;;;;;;16.95;69.02;96969.03;6104615;29;20080;-70
2022/09/18 04:45:23;;;;;;;6.10;3.97;;;;;;;17.01;69.00;96971.16;6103745;29;20040;-70
2022/09/18 04:48:26;;;;;;;;;;;;;;;17.21;67.98;96979.13;6104997;29;20426;-70
2022/09/18 04:51:30;;;;;;;6.17;4.50;;;;;;;16.99;68.39;96974.94;6104608;29;19923;-69
2022/09/18 04:54:36;;;;;;;12.02;8.63;;;;;;;16.91;68.78;96983.56;6102695;29;20056;-69
2022/09/18 04:57:40;;;;;;;11.88;9.40;;;;;;;16.80;69.36;96991.66;6104303;29;20055;-68
2022/09/18 05:00:46;;;;;;;9.45;7.43;;;;;;;16.94;69.24;96980.66;6103937;29;20056;-68
2022/09/18 05:03:50;;;;;;;7.18;5.10;;;;;;;17.14;68.48;96983.34;6104463;29;20052;-69
2022/09/18 05:06:52;;;;;;;5.95;4.40;;;;;;;17.32;68.41;96981.66;6103612;29;20096;-69
2022/09/18 05:09:56;;;;;;;6.68;3.95;;;;;;;17.63;67.15;96990.34;6104073;29;20047;-69
2022/09/18 05:13:00;;;;;;;4.55;3.40;;;;;;;17.80;66.14;96985.34;6103832;29;20068;-69
2022/09/18 05:16:04;;;;;;;8.98;6.03;;;;;;;17.69;66.33;96984.50;6103823;29;20138;-69
2022/09/18 05:19:08;;;;;;;4.05;3.15;;;;;;;17.59;66.50;97001.44;6103888;29;20056;-70
2022/09/18 05:22:12;;;;;;;5.70;3.75;;;;;;;17.40;67.01;96995.13;6103738;29;20051;-68
2022/09/18 05:25:14;;;;;;;4.70;4.20;;;;;;;17.42;67.00;96995.84;6103627;29;20062;-68
2022/09/18 05:28:18;;;;;;;5.22;4.60;;;;;;;17.63;66.15;96990.34;6103908;29;20127;-69
2022/09/18 05:31:22;;;;;;;5.80;3.90;;;;;;;18.12;64.99;97001.00;6103412;29;20052;-69
2022/09/18 05:34:24;;;;;;;8.38;3.60;;;;;;;18.60;63.32;96990.19;6103592;29;20039;-68
2022/09/18 05:37:26;;;;;;;5.82;3.58;;;;;;;18.91;62.23;96986.41;6103635;29;20127;-69
2022/09/18 05:40:36;;;;;;;5.40;3.15;;;;;;;19.05;61.90;96999.25;6103590;29;20502;-69
2022/09/18 05:43:42;;;;;;;5.82;3.67;;;;;;;18.97;61.89;96991.19;6103244;29;20123;-69
2022/09/18 05:46:46;;;;;;;4.10;3.28;;;;;;;19.18;60.42;96999.75;6103471;29;20055;-69
2022/09/18 05:49:48;;;;;;;4.13;3.13;;;;;;;19.16;60.49;97004.38;6103087;29;20426;-69
2022/09/18 05:53:10;;;;;;;5.60;3.45;;;;;;;19.35;59.88;97002.59;6103330;29;20510;-69
2022/09/18 05:56:18;;;;;;;3.60;3.15;;;;;;;19.20;59.71;97008.44;6103484;29;20130;-69
2022/09/18 05:59:24;;;;;;;4.43;2.85;;;;;;;19.24;59.42;97000.97;6103087;29;20146;-69
2022/09/18 06:02:28;;;;;;;3.85;2.58;;;;;;;19.18;59.66;96997.06;6103083;29;20084;-69
2022/09/18 06:05:34;;;;;;;5.03;3.47;;;;;;;19.18;59.34;97010.41;6103095;29;20064;-70
2022/09/18 06:08:35;;;;;;;5.97;3.50;;;;;;;18.91;60.29;97018.41;6102073;29;20067;-70
2022/09/18 06:11:40;;;;;;;3.45;2.63;;;;;;;18.88;59.75;97002.72;6102997;29;20402;-70
2022/09/18 06:14:41;;;;;;;3.88;2.80;;;;;;;18.65;60.60;97013.72;6102683;29;20184;-70
2022/09/18 06:17:51;;;;;;;3.08;2.80;;;;;;;18.46;61.21;97019.97;6102870;29;20072;-70
2022/09/18 06:20:56;;;;;;;3.22;2.80;;;;;;;18.46;61.97;97025.31;6102597;29;20096;-70
2022/09/18 06:23:57;;;;;;;4.97;2.65;;;;;;;18.50;61.40;97031.19;6103024;29;20048;-70
2022/09/18 06:26:59;;;;;;;5.70;2.97;;;;;;;18.38;61.74;97015.38;6102482;29;20052;-70
2022/09/18 06:30:04;;;;;;;3.42;2.60;;;;;;;18.50;61.50;97016.03;6102287;29;20044;-69
2022/09/18 06:33:09;;;;;;;3.95;2.55;;;;;;;18.82;60.45;97018.34;6102325;29;20107;-69
2022/09/18 06:36:12;;;;;;;3.80;2.72;;;;;;;19.41;58.89;97026.00;6102160;29;20187;-69
2022/09/18 06:39:18;;;;;;;4.72;2.67;;;;;;;20.42;55.64;97023.88;6101903;29;20533;-69
2022/09/18 06:42:19;;;;;;;3.83;1.92;;;;;;;21.06;53.86;97009.19;6102265;29;20048;-69
2022/09/18 06:45:24;;;;;;;2.92;2.60;;;;;;;21.66;51.67;97010.03;6102191;29;20040;-69
2022/09/18 06:48:31;;;;;;;3.97;2.88;;;;;;;21.80;51.04;97005.84;6101960;29;20418;-69
2022/09/18 06:51:35;;;;;;;3.28;2.88;;;;;;;22.02;51.11;97009.72;6101333;29;20219;-69
2022/09/18 06:54:40;;;;;;;4.07;2.25;;;;;;;24.39;46.79;97011.31;6101713;29;20056;-69
2022/09/18 06:57:55;;;;;;;2.88;2.60;;;;;;;26.17;42.37;97000.31;6101845;29;20056;-69
2022/09/18 07:01:01;;;;;;;2.40;2.15;;;;;;;27.37;39.75;97001.06;6101708;29;20044;-69
2022/09/18 07:04:10;;;;;;;2.85;2.15;;;;;;;30.84;33.29;97008.84;6101554;29;20040;-69
2022/09/18 07:07:14;;;;;;;3.30;2.40;;;;;;;31.18;32.16;96998.44;6101628;29;20092;-69
2022/09/18 07:10:17;;;;;;;2.90;2.20;;;;;;;33.17;29.95;97001.88;6101245;29;20066;-68
2022/09/18 07:13:19;;;;;;;4.20;2.22;;;;;;;33.71;27.72;97002.47;6101362;29;20533;-68
2022/09/18 07:16:23;;;;;;;2.55;1.38;;;;;;;32.76;29.08;96996.34;6101375;29;20052;-68
2022/09/18 07:19:27;;;;;;;2.67;1.95;;;;;;;29.51;33.17;96992.66;6101252;29;20046;-69
2022/09/18 07:22:29;;;;;;;3.40;2.15;;;;;;;27.17;37.54;96984.78;6101635;29;20036;-70
2022/09/18 07:25:34;;;;;;;2.50;2.30;;;;;;;26.67;38.69;96982.22;6101347;29;20052;-70
2022/09/18 07:28:38;;;;;;;3.22;1.77;;;;;;;25.76;40.33;96976.69;6101376;29;20060;-69
2022/09/18 07:31:42;;;;;;;3.42;1.75;;;;;;;25.34;41.46;96981.00;6101556;29;20040;-69
2022/09/18 07:34:45;;;;;;;4.03;2.75;;;;;;;24.92;41.97;96987.91;6101168;29;20063;-70
2022/09/18 07:37:47;;;;;;;3.42;2.30;;;;;;;24.08;44.26;96984.56;6101494;29;20040;-69
2022/09/18 07:40:51;;;;;;;3.65;2.45;;;;;;;23.58;45.77;96976.03;6101446;29;20051;-68
2022/09/18 07:43:52;;;;;;;3.45;2.67;;;;;;;23.57;46.23;96979.72;6101061;29;20056;-69
2022/09/18 07:47:00;;;;;;;2.70;1.88;;;;;;;24.17;45.02;96986.97;6101149;29;20414;-69
2022/09/18 07:50:04;;;;;;;4.13;1.83;;;;;;;24.04;45.11;96976.03;6101373;29;20040;-70
2022/09/18 07:53:07;;;;;;;2.10;1.90;;;;;;;25.61;42.69;96979.41;6101188;29;20545;-70
2022/09/18 07:56:10;;;;;;;;;;;;;;;30.08;34.91;97009.03;6101404;29;20498;-69
2022/09/18 07:59:13;;;;;;;2.05;1.65;;;;;;;29.00;35.05;96997.00;6100732;29;19927;-69
2022/09/18 08:02:19;;;;;;;2.30;2.00;;;;;;;27.00;39.03;96995.06;6101393;29;20060;-68
2022/09/18 08:05:22;;;;;;;2.50;2.03;;;;;;;25.53;41.92;96988.47;6100899;29;20092;-69
2022/09/18 08:08:28;;;;;;;3.38;2.38;;;;;;;24.58;43.82;96983.09;6100711;29;20052;-69
2022/09/18 08:11:32;;;;;;;2.72;1.67;;;;;;;24.20;44.97;96991.16;6100737;29;20131;-70
2022/09/18 08:14:33;;;;;;;2.30;1.70;;;;;;;24.77;44.40;96989.75;6100745;29;20062;-70
2022/09/18 08:17:42;;;;;;;2.60;2.40;;;;;;;24.64;44.46;96993.13;6100558;29;20048;-71
2022/09/18 08:20:43;;;;;;;2.90;2.33;;;;;;;23.94;45.91;96999.63;6100801;29;20418;-69
2022/09/18 08:23:45;;;;;;;2.50;2.00;;;;;;;23.37;47.30;97000.81;6101205;29;20093;-69
2022/09/18 08:26:52;;;;;;;2.28;2.08;;;;;;;23.03;47.98;97006.53;6100835;29;20071;-69
2022/09/18 08:29:57;;;;;;;3.63;2.75;;;;;;;23.30;47.81;97014.13;6101343;29;20056;-69
2022/09/18 08:33:03;;;;;;;2.17;1.63;;;;;;;23.80;46.80;97013.84;6104910;29;20039;-69
2022/09/18 08:36:05;;;;;;;2.50;2.25;;;;;;;23.96;46.40;97005.66;6104188;29;20104;-68
2022/09/18 08:39:07;;;;;;;2.10;1.70;;;;;;;24.09;46.65;97011.28;6104667;29;20115;-70
2022/09/18 08:42:43;;;;;;;2.47;1.80;;;;;;;24.31;45.69;97019.47;6104882;29;20535;-69
2022/09/18 08:46:01;;;;;;;3.00;1.95;;;;;;;24.14;45.95;97019.59;6103633;29;20047;-68
2022/09/18 08:49:25;;;;;;;2.35;1.95;;;;;;;23.99;45.97;97010.66;6104375;29;20542;-69
2022/09/18 08:52:41;;;;;;;2.70;2.17;;;;;;;24.09;46.07;97011.28;6104317;29;20451;-70
2022/09/18 08:55:46;;;;;;;2.88;2.00;;;;;;;24.77;45.09;97022.06;6104368;29;20072;-70
2022/09/18 08:59:03;;;;;;;2.17;2.00;;;;;;;25.16;43.56;97026.34;6104201;29;20052;-69
2022/09/18 09:02:29;;;;;;;2.20;2.00;;;;;;;26.99;39.85;97026.63;6104579;29;20040;-69
2022/09/18 09:05:35;;;;;;;;;;;;;;;29.49;36.28;97022.69;6105124;29;20088;-68
2022/09/18 09:09:09;;;;;;;1.38;1.27;;;;;;;31.36;32.29;97023.97;6104039;29;19919;-68
2022/09/18 09:12:31;;;;;;;2.58;1.70;;;;;;;33.91;28.92;97035.59;6100532;29;20199;-68
2022/09/18 09:15:49;;;;;;;2.13;1.50;;;;;;;35.29;26.51;97031.56;6104244;29;20052;-69
2022/09/18 09:19:26;;;;;;;1.98;1.55;;;;;;;36.75;25.67;97035.34;6103304;29;20145;-68
2022/09/18 09:22:42;;;;;;;1.77;1.65;;;;;;;37.85;23.31;97041.97;6103340;29;20076;-68
2022/09/18 09:25:58;;;;;;;2.65;0.98;;;;;;;39.81;21.65;97027.84;6103533;29;20425;-69
2022/09/18 09:29:18;;;;;;;1.63;1.10;;;;;;;41.19;19.56;97038.66;6103704;29;20506;-69
2022/09/18 09:32:33;;;;;;;1.30;0.90;;;;;;;40.17;20.25;97029.25;6104054;29;20048;-69
2022/09/18 09:35:44;;;;;;;1.80;1.10;;;;;;;38.89;21.64;97037.16;6103967;29;20048;-68
2022/09/18 09:39:00;;;;;;;2.13;1.45;;;;;;;37.84;22.46;97027.41;6103350;29;20521;-69
2022/09/18 09:42:10;;;;;;;2.20;1.23;;;;;;;36.02;24.69;97029.44;6103509;29;20068;-68
2022/09/18 09:45:17;;;;;;;1.60;1.50;;;;;;;33.35;27.85;97023.56;6103627;29;20051;-69
2022/09/18 09:48:25;;;;;;;1.15;1.05;;;;;;;30.53;32.05;97007.03;6103394;29;20100;-69
2022/09/18 09:51:42;;;;;;;2.13;1.75;;;;;;;29.30;34.21;97012.78;6103231;29;20531;-69
2022/09/18 09:54:47;;;;;;;1.80;1.20;;;;;;;27.92;36.48;97010.81;6101766;29;20162;-70
2022/09/18 09:58:05;;;;;;;4.00;1.70;;;;;;;27.03;38.52;97000.88;6102994;29;20052;-69
2022/09/18 10:01:31;;;;;;;2.00;1.60;;;;;;;26.61;39.21;97001.88;6102520;29;20199;-70
2022/09/18 10:04:37;;;;;;;1.75;1.50;;;;;;;26.22;40.20;96997.84;6102781;29;20454;-70
2022/09/18 10:07:48;;;;;;;1.45;1.35;;;;;;;26.35;40.51;96997.94;6102525;29;20199;-70
2022/09/18 10:11:07;;;;;;;2.60;2.20;;;;;;;27.15;38.77;96998.47;6102251;29;20425;-70
2022/09/18 10:14:21;;;;;;;2.83;2.25;;;;;;;26.67;39.82;96989.47;6102737;29;20063;-70
2022/09/18 10:17:29;;;;;;;2.83;2.20;;;;;;;26.21;40.75;96990.78;6102583;29;20048;-69
2022/09/18 10:20:35;;;;;;;2.78;2.38;;;;;;;25.79;41.51;96997.84;6101861;29;20044;-69
2022/09/18 10:23:40;;;;;;;2.47;1.80;;;;;;;25.40;42.48;96993.72;6102105;29;20130;-69
2022/09/18 10:27:01;;;;;;;2.20;1.95;;;;;;;24.99;43.77;96996.88;6102593;29;20518;-69
2022/09/18 10:30:12;;;;;;;1.80;1.70;;;;;;;24.71;44.68;96993.19;6102483;29;20131;-69
2022/09/18 10:33:33;;;;;;;5.40;1.90;;;;;;;24.52;45.23;97003.50;6102178;29;20514;-69
2022/09/18 10:36:41;;;;;;;2.28;1.90;;;;;;;24.39;45.89;96995.19;6102152;29;20067;-69
2022/09/18 10:39:52;;;;;;;3.42;1.85;;;;;;;24.39;45.70;96989.81;6102449;29;20077;-70
2022/09/18 10:42:55;;;;;;;3.67;2.20;;;;;;;24.35;45.32;96993.91;6101881;29;20058;-70
2022/09/18 10:45:57;;;;;;;3.20;1.80;;;;;;;24.43;45.52;96999.22;6101992;29;20044;-69
2022/09/18 10:49:14;;;;;;;2.50;1.92;;;;;;;24.56;45.66;97002.09;6102059;29;20751;-68
2022/09/18 10:52:36;;;;;;;3.72;1.95;;;;;;;24.51;45.67;96999.13;6102001;29;20047;-68
2022/09/18 10:55:52;;;;;;;2.15;1.95;;;;;;;24.18;46.07;96994.03;6102026;29;20043;-70
2022/09/18 10:59:11;;;;;;;3.08;2.38;;;;;;;24.08;46.88;97001.50;6101644;29;20052;-69
2022/09/18 11:02:18;;;;;;;2.40;1.92;;;;;;;24.18;46.64;97010.19;6101803;29;20059;-69
2022/09/18 11:05:45;;;;;;;7.55;4.53;;;;;;;24.35;46.79;97004.66;6101799;29;20040;-69
2022/09/18 11:08:59;;;;;;;3.88;2.40;;;;;;;24.58;46.24;97010.81;6101825;29;20052;-69
2022/09/18 11:12:01;;;;;;;5.03;2.72;;;;;;;25.47;44.02;97008.06;6101696;29;20058;-69
2022/09/18 11:15:08;;;;;;;4.95;2.55;;;;;;;27.36;40.63;97015.63;6101128;29;20068;-70
2022/09/18 11:18:14;;;;;;;4.05;2.50;;;;;;;29.09;37.43;97001.16;6101072;29;20143;-69
2022/09/18 11:21:16;;;;;;;2.65;1.88;;;;;;;30.16;35.52;97027.75;6101523;29;20093;-69
2022/09/18 11:24:40;;;;;;;3.78;1.73;;;;;;;30.84;34.05;97030.56;6101608;29;20321;-69
2022/09/18 11:27:52;;;;;;;2.53;2.08;;;;;;;31.27;33.02;97026.97;6100300;29;20047;-69
2022/09/18 11:31:23;;;;;;;3.13;1.83;;;;;;;30.62;34.74;97034.72;6101370;29;20131;-69
2022/09/18 11:34:38;;;;;;;2.30;1.65;;;;;;;29.42;36.29;97027.31;6093961;29;20056;-68
2022/09/18 11:37:46;;;;;;;;;;;;;;;28.89;37.64;97022.03;6101931;29;20527;-69
2022/09/18 11:40:52;;;;;;;3.72;1.55;;;;;;;29.59;36.26;97021.41;6101222;29;19923;-69
2022/09/18 11:43:59;;;;;;;1.85;1.55;;;;;;;29.57;35.79;97028.94;6101481;29;20506;-69
2022/09/18 11:47:22;;;;;;;2.15;1.70;;;;;;;28.47;37.66;97029.59;6101185;29;20056;-69
2022/09/18 11:50:28;;;;;;;2.55;2.00;;;;;;;27.31;39.96;97030.56;6101066;29;20044;-69
2022/09/18 11:53:39;;;;;;;2.30;1.98;;;;;;;26.34;41.52;97033.22;6100872;29;20461;-69
2022/09/18 11:56:47;;;;;;;4.25;2.08;;;;;;;25.73;43.25;97026.41;6101297;29;20056;-69
2022/09/18 11:59:55;;;;;;;2.47;2.10;;;;;;;25.37;43.61;97037.19;6100938;29;20052;-69
2022/09/18 12:03:19;;;;;;;2.58;1.75;;;;;;;25.29;44.03;97037.28;6101221;29;20055;-70
2022/09/18 12:06:55;;;;;;;2.90;1.42;;;;;;;26.15;42.53;97046.31;6103366;29;20056;-69
2022/09/18 12:10:10;;;;;;;2.03;1.60;;;;;;;27.59;39.40;97053.94;6105641;29;20054;-69
2022/09/18 12:13:23;;;;;;;3.20;1.67;;;;;;;28.65;37.78;97059.59;6105153;29;20059;-69
2022/09/18 12:16:31;;;;;;;;;;;;;;;28.75;37.32;97069.16;6105179;29;20060;-69
2022/09/18 12:19:41;;;;;;;2.88;2.20;;;;;;;27.69;38.63;97076.03;6105167;29;19929;-69
2022/09/18 12:22:58;;;;;;;2.38;1.77;;;;;;;26.63;40.72;97053.81;6105254;29;20450;-70
2022/09/18 12:26:18;;;;;;;2.85;2.35;;;;;;;25.54;42.24;97046.72;6105360;29;20052;-70
2022/09/18 12:29:36;;;;;;;3.20;2.47;;;;;;;24.41;44.74;97052.31;6105357;29;20040;-69
2022/09/18 12:32:59;;;;;;;2.95;2.40;;;;;;;24.08;45.75;97052.59;6104931;29;20515;-69
2022/09/18 12:36:39;;;;;;;2.72;2.40;;;;;;;23.89;46.11;97053.94;6104805;29;20430;-69
2022/09/18 12:40:05;;;;;;;4.70;2.67;;;;;;;23.51;47.39;97061.84;6090095;29;20056;-70
2022/09/18 12:43:15;;;;;;;4.13;2.88;;;;;;;23.51;47.88;97069.06;6104845;29;20040;-69
2022/09/18 12:46:33;;;;;;;4.03;3.55;;;;;;;23.44;48.13;97081.50;6104652;29;20052;-69
2022/09/18 12:49:49;;;;;;;5.10;3.22;;;;;;;23.31;48.93;97071.34;6104601;29;20518;-70
2022/09/18 12:53:18;;;;;;;4.75;3.25;;;;;;;23.10;49.30;97063.88;6104336;29;20052;-70
2022/09/18 12:56:52;;;;;;;3.45;3.05;;;;;;;22.99;49.78;97064.25;6100649;29;20056;-70
2022/09/18 13:00:13;;;;;;;4.00;3.10;;;;;;;22.92;49.82;97072.09;6104355;29;20051;-69
2022/09/18 13:03:43;;;;;;;4.07;3.50;;;;;;;22.68;50.01;97080.25;6104293;29;20058;-70
2022/09/18 13:06:57;;;;;;;2.72;2.38;;;;;;;22.46;50.76;97082.59;6103866;29;20051;-70
2022/09/18 13:10:13;;;;;;;4.32;3.08;;;;;;;22.27;51.35;97078.41;6103953;29;20063;-69
2022/09/18 13:13:45;;;;;;;3.30;3.00;;;;;;;22.17;51.58;97083.09;6104101;29;20056;-70
2022/09/18 13:17:20;;;;;;;4.30;3.17;;;;;;;22.08;51.89;97081.38;6103658;29;20200;-69
2022/09/18 13:20:22;;;;;;;5.90;4.13;;;;;;;21.88;52.37;97079.03;6103896;29;20430;-69
2022/09/18 13:23:31;;;;;;;5.00;3.85;;;;;;;21.86;52.70;97074.84;6103940;29;20040;-69
2022/09/18 13:26:37;;;;;;;5.13;3.45;;;;;;;21.84;52.53;97082.22;6103920;29;20071;-70
2022/09/18 13:29:53;;;;;;;3.85;3.45;;;;;;;21.74;52.90;97077.00;6103736;29;20047;-69
2022/09/18 13:32:58;;;;;;;4.68;4.03;;;;;;;21.71;53.23;97077.31;6102145;29;20048;-70
2022/09/18 13:36:00;;;;;;;5.25;3.72;;;;;;;21.75;52.96;97079.50;6103779;29;20064;-69
2022/09/18 13:39:17;;;;;;;3.95;3.22;;;;;;;21.67;53.50;97081.34;6103711;29;20112;-70
2022/09/18 13:42:47;;;;;;;5.47;3.78;;;;;;;21.63;53.59;97077.31;6103400;29;20060;-69
2022/09/18 13:45:52;;;;;;;4.45;3.40;;;;;;;21.57;54.04;97080.63;6101960;29;20044;-69
2022/09/18 13:49:00;;;;;;;4.47;3.25;;;;;;;21.26;55.27;97070.47;6103378;29;20048;-69
2022/09/18 13:52:32;;;;;;;5.65;4.25;;;;;;;21.20;55.77;97080.00;6103284;29;20051;-68
2022/09/18 13:55:48;;;;;;;5.65;4.38;;;;;;;21.11;56.66;97078.25;6101910;29;20516;-69
2022/09/18 13:58:54;;;;;;;4.20;3.55;;;;;;;20.97;56.90;97074.34;6103195;29;20035;-69
2022/09/18 14:02:01;;;;;;;4.93;4.07;;;;;;;20.82;57.65;97089.31;6102956;29;20066;-68
2022/09/18 14:05:20;;;;;;;5.50;3.55;;;;;;;20.66;58.36;97081.19;6103029;29;20059;-68
2022/09/18 14:08:22;;;;;;;4.03;3.60;;;;;;;20.55;58.71;97077.81;6102526;29;20087;-69
2022/09/18 14:11:24;;;;;;;4.40;3.60;;;;;;;20.34;59.54;97082.63;6103060;29;20048;-69
2022/09/18 14:14:25;;;;;;;4.18;3.03;;;;;;;20.25;59.61;97094.25;6102761;29;20059;-69
2022/09/18 14:17:32;;;;;;;4.80;4.00;;;;;;;20.05;60.62;97089.06;6102821;29;20577;-69
2022/09/18 14:20:34;;;;;;;4.00;3.58;;;;;;;19.84;61.47;97096.53;6102531;29;20067;-70
2022/09/18 14:23:37;;;;;;;5.45;4.40;;;;;;;19.78;61.52;97102.47;6102505;29;20036;-69
2022/09/18 14:26:38;;;;;;;4.80;4.15;;;;;;;19.63;62.24;97108.31;6103737;29;20581;-71
2022/09/18 14:29:46;;;;;;;6.05;4.65;;;;;;;19.50;62.49;97121.16;6102256;29;20429;-69
2022/09/18 14:33:14;;;;;;;4.68;4.28;;;;;;;19.39;62.92;97114.22;6102648;29;20155;-69
2022/09/18 14:36:21;;;;;;;5.53;4.80;;;;;;;19.28;63.31;97115.25;6102348;29;20425;-69
2022/09/18 14:39:31;;;;;;;6.93;5.45;;;;;;;19.26;63.63;97114.53;6101883;29;20582;-69
2022/09/18 14:42:38;;;;;;;7.30;5.05;;;;;;;19.08;63.92;97113.66;6102453;29;20134;-69
2022/09/18 14:45:42;;;;;;;8.98;5.85;;;;;;;18.98;64.64;97110.19;6102298;29;20056;-69
2022/09/18 14:48:46;;;;;;;7.20;5.70;;;;;;;19.02;64.17;97114.22;6102422;29;20044;-69
2022/09/18 14:51:50;;;;;;;6.38;5.72;;;;;;;18.97;64.72;97116.50;6101865;29;20044;-70